Kezdőlap
METAR-TAF:

METAR-TAF

Repülőterek :

Fort Worth, Texas, Amerikai Egyesült Államok

földrajzi szélesség: 32-49-31N, földrajzi hosszúság: 097-21-51W, magasság: 216 m

Jelenlegi meteorológiai megfigyelések

A jelentés 33 perccel ezelõtt készült, 20:53 UTC
Délkeleti szél 7 kt széllökések: 18 kt, keleti és dél-délkeleti között változik
Hőmérséklet 33°C
Páratartalom 44%
Légköri nyomás 1011 hPa
Látótávolság: 16.1 km
Derült ég

METAR: KFTW 152053Z 13007G18KT 100V160 10SM CLR 33/19 A2986 RMK AO2 SLP100 T03280194 56018

Idő: 16:26 (21:26 UTC)

Előrejelzés

A jelentés 31 perccel ezelõtt készült, 20:55 UTC
Az előrejelzés 15-én 21 óra UTC és 16-én 18 óra UTC között érvényes
Déli szél 10 kt
Látótávolság: 10 km
Kevés felhő 5000 lábon
Kevés felhő 25000 lábon

TAF: KFTW 152055Z 1521/1618 17010KT P6SM FEW050 FEW250

Meteorológiai megfigyelések és előrejelzések több, mint 4000 repülőtéren (METAR és TAF jelentéseket).

A térképen piros és sárga pontok jelzik az elérhető meteorológiai állomásokat.

Mozgassa az egeret a pont fölött, hogy megjelenjen az állomás neve.

Azután kattintson az időjárási megfigyelések és előrejelzések megtekintéséhez.

A térkép megváltoztatása: kattintson a fekete keresztel jelölt zöld gombra ráközelítéshez, a vonallal jelölt zöld gombra távolításhoz, vagy a zöld nyilakra a szomszédos térképek eléréséhez.


METAR-TAF: